sensor_id;sensor_type;location;lat;lon;timestamp;P1;durP1;ratioP1;P2;durP2;ratioP2
70731;SDS011;58316;48.164;11.538;2022-08-21T00:00:17;6.03;;;1.33;;
70731;SDS011;58316;48.164;11.538;2022-08-21T00:02:44;5.28;;;1.50;;
70731;SDS011;58316;48.164;11.538;2022-08-21T00:05:10;5.00;;;1.48;;
70731;SDS011;58316;48.164;11.538;2022-08-21T00:07:36;5.60;;;1.40;;
70731;SDS011;58316;48.164;11.538;2022-08-21T00:10:03;5.20;;;1.90;;
70731;SDS011;58316;48.164;11.538;2022-08-21T00:12:29;4.78;;;1.33;;
70731;SDS011;58316;48.164;11.538;2022-08-21T00:14:56;6.07;;;2.45;;
70731;SDS011;58316;48.164;11.538;2022-08-21T00:17:22;4.50;;;1.38;;
70731;SDS011;58316;48.164;11.538;2022-08-21T00:19:48;4.73;;;1.43;;
70731;SDS011;58316;48.164;11.538;2022-08-21T00:22:14;6.97;;;1.50;;
70731;SDS011;58316;48.164;11.538;2022-08-21T00:24:40;5.45;;;1.60;;
70731;SDS011;58316;48.164;11.538;2022-08-21T00:27:06;8.45;;;3.72;;
70731;SDS011;58316;48.164;11.538;2022-08-21T00:29:32;7.82;;;2.60;;
70731;SDS011;58316;48.164;11.538;2022-08-21T00:31:58;5.00;;;1.50;;
70731;SDS011;58316;48.164;11.538;2022-08-21T00:34:25;5.57;;;1.10;;
70731;SDS011;58316;48.164;11.538;2022-08-21T00:36:51;5.25;;;1.35;;
70731;SDS011;58316;48.164;11.538;2022-08-21T00:39:17;4.57;;;1.30;;
70731;SDS011;58316;48.164;11.538;2022-08-21T00:41:43;5.22;;;1.30;;
70731;SDS011;58316;48.164;11.538;2022-08-21T00:44:11;4.80;;;1.20;;
70731;SDS011;58316;48.164;11.538;2022-08-21T00:46:38;5.45;;;1.30;;
70731;SDS011;58316;48.164;11.538;2022-08-21T00:49:05;4.45;;;1.13;;
70731;SDS011;58316;48.164;11.538;2022-08-21T00:51:43;4.10;;;0.90;;
70731;SDS011;58316;48.164;11.538;2022-08-21T00:54:11;4.40;;;0.95;;
70731;SDS011;58316;48.164;11.538;2022-08-21T00:56:38;4.90;;;1.30;;
70731;SDS011;58316;48.164;11.538;2022-08-21T00:59:05;4.88;;;1.20;;
70731;SDS011;58316;48.164;11.538;2022-08-21T01:01:31;4.53;;;1.00;;
70731;SDS011;58316;48.164;11.538;2022-08-21T01:03:57;5.60;;;1.50;;
70731;SDS011;58316;48.164;11.538;2022-08-21T01:06:23;5.43;;;1.40;;
70731;SDS011;58316;48.164;11.538;2022-08-21T01:08:49;5.20;;;1.17;;
70731;SDS011;58316;48.164;11.538;2022-08-21T01:11:15;4.82;;;1.30;;
70731;SDS011;58316;48.164;11.538;2022-08-21T01:13:42;4.40;;;1.08;;
70731;SDS011;58316;48.164;11.538;2022-08-21T01:16:12;5.60;;;1.10;;
70731;SDS011;58316;48.164;11.538;2022-08-21T01:18:39;4.50;;;1.10;;
70731;SDS011;58316;48.164;11.538;2022-08-21T01:21:06;6.70;;;1.37;;
70731;SDS011;58316;48.164;11.538;2022-08-21T01:23:34;6.05;;;1.27;;
70731;SDS011;58316;48.164;11.538;2022-08-21T01:26:01;5.68;;;0.90;;
70731;SDS011;58316;48.164;11.538;2022-08-21T01:28:27;4.60;;;1.17;;
70731;SDS011;58316;48.164;11.538;2022-08-21T01:30:55;6.00;;;1.10;;
70731;SDS011;58316;48.164;11.538;2022-08-21T01:33:22;5.20;;;1.10;;
70731;SDS011;58316;48.164;11.538;2022-08-21T01:35:48;4.65;;;1.35;;
70731;SDS011;58316;48.164;11.538;2022-08-21T01:38:15;4.13;;;0.70;;
70731;SDS011;58316;48.164;11.538;2022-08-21T01:40:41;5.38;;;1.30;;
70731;SDS011;58316;48.164;11.538;2022-08-21T01:43:07;6.10;;;1.40;;
70731;SDS011;58316;48.164;11.538;2022-08-21T01:45:33;5.03;;;0.80;;
70731;SDS011;58316;48.164;11.538;2022-08-21T01:47:59;5.25;;;1.08;;
70731;SDS011;58316;48.164;11.538;2022-08-21T01:50:25;4.43;;;1.17;;
70731;SDS011;58316;48.164;11.538;2022-08-21T01:52:51;5.60;;;1.60;;
70731;SDS011;58316;48.164;11.538;2022-08-21T01:55:17;17.65;;;9.10;;
70731;SDS011;58316;48.164;11.538;2022-08-21T01:57:45;4.83;;;1.37;;
70731;SDS011;58316;48.164;11.538;2022-08-21T02:00:12;5.00;;;0.95;;
70731;SDS011;58316;48.164;11.538;2022-08-21T02:02:39;5.00;;;1.10;;
70731;SDS011;58316;48.164;11.538;2022-08-21T02:05:06;6.57;;;1.58;;
70731;SDS011;58316;48.164;11.538;2022-08-21T02:07:39;4.82;;;1.08;;
70731;SDS011;58316;48.164;11.538;2022-08-21T02:10:06;4.60;;;0.90;;
70731;SDS011;58316;48.164;11.538;2022-08-21T02:12:32;6.65;;;1.20;;
70731;SDS011;58316;48.164;11.538;2022-08-21T02:14:59;4.50;;;1.05;;
70731;SDS011;58316;48.164;11.538;2022-08-21T02:17:25;5.68;;;1.17;;
70731;SDS011;58316;48.164;11.538;2022-08-21T02:19:51;5.38;;;1.20;;
70731;SDS011;58316;48.164;11.538;2022-08-21T02:22:17;4.70;;;1.20;;
70731;SDS011;58316;48.164;11.538;2022-08-21T02:24:43;6.63;;;1.20;;
70731;SDS011;58316;48.164;11.538;2022-08-21T02:27:09;5.40;;;1.10;;
70731;SDS011;58316;48.164;11.538;2022-08-21T02:29:35;4.22;;;0.75;;
70731;SDS011;58316;48.164;11.538;2022-08-21T02:32:01;4.70;;;1.00;;
70731;SDS011;58316;48.164;11.538;2022-08-21T02:34:27;4.70;;;1.20;;
70731;SDS011;58316;48.164;11.538;2022-08-21T02:36:53;5.60;;;1.40;;
70731;SDS011;58316;48.164;11.538;2022-08-21T02:39:19;5.07;;;1.15;;
70731;SDS011;58316;48.164;11.538;2022-08-21T02:41:45;4.43;;;0.80;;
70731;SDS011;58316;48.164;11.538;2022-08-21T02:44:11;4.30;;;1.10;;
70731;SDS011;58316;48.164;11.538;2022-08-21T02:46:37;4.13;;;0.80;;
70731;SDS011;58316;48.164;11.538;2022-08-21T02:49:03;4.85;;;1.30;;
70731;SDS011;58316;48.164;11.538;2022-08-21T02:51:29;4.53;;;1.08;;
70731;SDS011;58316;48.164;11.538;2022-08-21T02:53:55;4.55;;;1.20;;
70731;SDS011;58316;48.164;11.538;2022-08-21T02:56:22;5.38;;;1.50;;
70731;SDS011;58316;48.164;11.538;2022-08-21T02:58:49;4.97;;;1.27;;
70731;SDS011;58316;48.164;11.538;2022-08-21T03:01:16;5.55;;;1.40;;
70731;SDS011;58316;48.164;11.538;2022-08-21T03:03:44;4.57;;;1.10;;
70731;SDS011;58316;48.164;11.538;2022-08-21T03:06:12;4.60;;;1.20;;
70731;SDS011;58316;48.164;11.538;2022-08-21T03:08:38;4.40;;;1.00;;
70731;SDS011;58316;48.164;11.538;2022-08-21T03:11:04;5.33;;;1.27;;
70731;SDS011;58316;48.164;11.538;2022-08-21T03:13:31;4.88;;;1.40;;
70731;SDS011;58316;48.164;11.538;2022-08-21T03:15:57;9.75;;;4.13;;
70731;SDS011;58316;48.164;11.538;2022-08-21T03:18:24;5.22;;;1.60;;
70731;SDS011;58316;48.164;11.538;2022-08-21T03:20:50;4.88;;;1.40;;
70731;SDS011;58316;48.164;11.538;2022-08-21T03:23:16;4.47;;;1.17;;
70731;SDS011;58316;48.164;11.538;2022-08-21T03:25:43;6.20;;;1.60;;
70731;SDS011;58316;48.164;11.538;2022-08-21T03:28:20;4.53;;;1.00;;
70731;SDS011;58316;48.164;11.538;2022-08-21T03:30:50;4.60;;;1.30;;
70731;SDS011;58316;48.164;11.538;2022-08-21T03:33:16;5.65;;;1.10;;
70731;SDS011;58316;48.164;11.538;2022-08-21T03:35:43;5.53;;;1.23;;
70731;SDS011;58316;48.164;11.538;2022-08-21T03:38:10;6.28;;;1.30;;
70731;SDS011;58316;48.164;11.538;2022-08-21T03:40:37;4.88;;;1.20;;
70731;SDS011;58316;48.164;11.538;2022-08-21T03:43:04;4.80;;;1.40;;
70731;SDS011;58316;48.164;11.538;2022-08-21T03:45:33;5.80;;;1.73;;
70731;SDS011;58316;48.164;11.538;2022-08-21T03:48:00;4.73;;;1.40;;
70731;SDS011;58316;48.164;11.538;2022-08-21T03:50:28;6.40;;;1.13;;
70731;SDS011;58316;48.164;11.538;2022-08-21T03:52:54;5.20;;;1.50;;
70731;SDS011;58316;48.164;11.538;2022-08-21T03:55:20;5.13;;;1.38;;
70731;SDS011;58316;48.164;11.538;2022-08-21T03:57:46;5.30;;;1.80;;
70731;SDS011;58316;48.164;11.538;2022-08-21T04:00:13;4.50;;;1.30;;
70731;SDS011;58316;48.164;11.538;2022-08-21T04:02:39;6.65;;;1.10;;
70731;SDS011;58316;48.164;11.538;2022-08-21T04:05:05;5.07;;;1.10;;
70731;SDS011;58316;48.164;11.538;2022-08-21T04:07:31;5.60;;;1.50;;
70731;SDS011;58316;48.164;11.538;2022-08-21T04:09:57;5.20;;;1.30;;
70731;SDS011;58316;48.164;11.538;2022-08-21T04:12:23;4.70;;;1.30;;
70731;SDS011;58316;48.164;11.538;2022-08-21T04:14:49;5.00;;;1.42;;
70731;SDS011;58316;48.164;11.538;2022-08-21T04:17:16;5.20;;;1.20;;
70731;SDS011;58316;48.164;11.538;2022-08-21T04:19:42;6.40;;;1.35;;
70731;SDS011;58316;48.164;11.538;2022-08-21T04:22:08;5.18;;;1.33;;
70731;SDS011;58316;48.164;11.538;2022-08-21T04:24:34;4.63;;;1.33;;
70731;SDS011;58316;48.164;11.538;2022-08-21T04:27:00;4.53;;;1.05;;
70731;SDS011;58316;48.164;11.538;2022-08-21T04:29:26;5.40;;;1.27;;
70731;SDS011;58316;48.164;11.538;2022-08-21T04:31:52;4.60;;;1.30;;
70731;SDS011;58316;48.164;11.538;2022-08-21T04:34:18;5.80;;;1.10;;
70731;SDS011;58316;48.164;11.538;2022-08-21T04:36:44;4.60;;;1.30;;
70731;SDS011;58316;48.164;11.538;2022-08-21T04:39:10;4.57;;;1.23;;
70731;SDS011;58316;48.164;11.538;2022-08-21T04:41:36;5.05;;;1.52;;
70731;SDS011;58316;48.164;11.538;2022-08-21T04:44:03;4.70;;;1.35;;
70731;SDS011;58316;48.164;11.538;2022-08-21T04:46:29;6.15;;;1.20;;
70731;SDS011;58316;48.164;11.538;2022-08-21T04:48:55;5.27;;;1.57;;
70731;SDS011;58316;48.164;11.538;2022-08-21T04:51:23;5.00;;;1.40;;
70731;SDS011;58316;48.164;11.538;2022-08-21T04:53:50;6.40;;;1.60;;
70731;SDS011;58316;48.164;11.538;2022-08-21T04:56:39;5.35;;;1.38;;
70731;SDS011;58316;48.164;11.538;2022-08-21T04:59:05;5.45;;;1.63;;
70731;SDS011;58316;48.164;11.538;2022-08-21T05:01:33;4.60;;;1.17;;
70731;SDS011;58316;48.164;11.538;2022-08-21T05:04:00;7.88;;;1.25;;
70731;SDS011;58316;48.164;11.538;2022-08-21T05:06:28;4.85;;;1.20;;
70731;SDS011;58316;48.164;11.538;2022-08-21T05:08:55;5.00;;;1.10;;
70731;SDS011;58316;48.164;11.538;2022-08-21T05:11:22;5.18;;;1.30;;
70731;SDS011;58316;48.164;11.538;2022-08-21T05:13:48;4.77;;;1.10;;
70731;SDS011;58316;48.164;11.538;2022-08-21T05:16:15;4.68;;;1.50;;
70731;SDS011;58316;48.164;11.538;2022-08-21T05:18:41;5.78;;;1.33;;
70731;SDS011;58316;48.164;11.538;2022-08-21T05:21:07;5.55;;;1.95;;
70731;SDS011;58316;48.164;11.538;2022-08-21T05:23:34;5.40;;;1.50;;
70731;SDS011;58316;48.164;11.538;2022-08-21T05:26:00;7.57;;;1.50;;
70731;SDS011;58316;48.164;11.538;2022-08-21T05:28:26;5.55;;;1.70;;
70731;SDS011;58316;48.164;11.538;2022-08-21T05:30:52;5.50;;;1.30;;
70731;SDS011;58316;48.164;11.538;2022-08-21T05:33:19;6.18;;;1.30;;
70731;SDS011;58316;48.164;11.538;2022-08-21T05:35:45;6.30;;;1.17;;
70731;SDS011;58316;48.164;11.538;2022-08-21T05:38:11;5.00;;;1.30;;
70731;SDS011;58316;48.164;11.538;2022-08-21T05:40:37;5.28;;;1.55;;
70731;SDS011;58316;48.164;11.538;2022-08-21T05:43:03;7.00;;;1.98;;
70731;SDS011;58316;48.164;11.538;2022-08-21T05:45:30;5.55;;;1.63;;
70731;SDS011;58316;48.164;11.538;2022-08-21T05:47:57;6.15;;;1.77;;
70731;SDS011;58316;48.164;11.538;2022-08-21T05:50:23;5.43;;;1.80;;
70731;SDS011;58316;48.164;11.538;2022-08-21T05:52:49;10.52;;;1.80;;
70731;SDS011;58316;48.164;11.538;2022-08-21T05:55:15;4.90;;;1.30;;
70731;SDS011;58316;48.164;11.538;2022-08-21T05:57:41;6.25;;;1.70;;
70731;SDS011;58316;48.164;11.538;2022-08-21T06:00:08;5.37;;;1.60;;
70731;SDS011;58316;48.164;11.538;2022-08-21T06:02:37;5.40;;;1.60;;
70731;SDS011;58316;48.164;11.538;2022-08-21T06:05:03;5.60;;;1.35;;
70731;SDS011;58316;48.164;11.538;2022-08-21T06:07:30;5.65;;;1.20;;
70731;SDS011;58316;48.164;11.538;2022-08-21T06:09:56;6.20;;;1.60;;
70731;SDS011;58316;48.164;11.538;2022-08-21T06:12:22;5.95;;;1.40;;
70731;SDS011;58316;48.164;11.538;2022-08-21T06:14:48;5.33;;;1.60;;
70731;SDS011;58316;48.164;11.538;2022-08-21T06:17:15;4.80;;;1.38;;
70731;SDS011;58316;48.164;11.538;2022-08-21T06:19:41;5.20;;;1.50;;
70731;SDS011;58316;48.164;11.538;2022-08-21T06:22:07;6.13;;;1.88;;
70731;SDS011;58316;48.164;11.538;2022-08-21T06:24:33;5.18;;;1.50;;
70731;SDS011;58316;48.164;11.538;2022-08-21T06:27:04;5.27;;;1.70;;
70731;SDS011;58316;48.164;11.538;2022-08-21T06:29:30;5.53;;;1.70;;
70731;SDS011;58316;48.164;11.538;2022-08-21T06:31:56;6.03;;;1.90;;
70731;SDS011;58316;48.164;11.538;2022-08-21T06:34:22;6.50;;;2.10;;
70731;SDS011;58316;48.164;11.538;2022-08-21T06:36:48;5.60;;;1.50;;
70731;SDS011;58316;48.164;11.538;2022-08-21T06:39:14;5.83;;;1.63;;
70731;SDS011;58316;48.164;11.538;2022-08-21T06:41:40;6.00;;;1.23;;
70731;SDS011;58316;48.164;11.538;2022-08-21T06:44:06;6.63;;;1.50;;
70731;SDS011;58316;48.164;11.538;2022-08-21T06:46:32;7.07;;;1.73;;
70731;SDS011;58316;48.164;11.538;2022-08-21T06:48:58;5.00;;;1.17;;
70731;SDS011;58316;48.164;11.538;2022-08-21T06:51:25;5.00;;;1.80;;
70731;SDS011;58316;48.164;11.538;2022-08-21T06:53:51;6.63;;;1.90;;
70731;SDS011;58316;48.164;11.538;2022-08-21T06:56:18;7.43;;;1.63;;
70731;SDS011;58316;48.164;11.538;2022-08-21T06:58:44;6.03;;;2.30;;
70731;SDS011;58316;48.164;11.538;2022-08-21T07:01:10;6.88;;;1.90;;
70731;SDS011;58316;48.164;11.538;2022-08-21T07:03:37;7.47;;;2.03;;
70731;SDS011;58316;48.164;11.538;2022-08-21T07:06:04;8.10;;;2.50;;
70731;SDS011;58316;48.164;11.538;2022-08-21T07:08:30;5.30;;;1.90;;
70731;SDS011;58316;48.164;11.538;2022-08-21T07:10:58;6.13;;;1.95;;
70731;SDS011;58316;48.164;11.538;2022-08-21T07:13:25;7.15;;;1.77;;
70731;SDS011;58316;48.164;11.538;2022-08-21T07:15:51;6.20;;;2.27;;
70731;SDS011;58316;48.164;11.538;2022-08-21T07:18:17;6.47;;;2.05;;
70731;SDS011;58316;48.164;11.538;2022-08-21T07:20:43;8.02;;;1.90;;
70731;SDS011;58316;48.164;11.538;2022-08-21T07:23:11;6.15;;;1.60;;
70731;SDS011;58316;48.164;11.538;2022-08-21T07:25:38;6.45;;;1.85;;
70731;SDS011;58316;48.164;11.538;2022-08-21T07:28:04;6.73;;;1.80;;
70731;SDS011;58316;48.164;11.538;2022-08-21T07:30:30;7.15;;;2.10;;
70731;SDS011;58316;48.164;11.538;2022-08-21T07:32:56;6.60;;;2.80;;
70731;SDS011;58316;48.164;11.538;2022-08-21T07:35:22;8.00;;;2.30;;
70731;SDS011;58316;48.164;11.538;2022-08-21T07:37:48;5.82;;;2.10;;
70731;SDS011;58316;48.164;11.538;2022-08-21T07:40:15;5.53;;;1.97;;
70731;SDS011;58316;48.164;11.538;2022-08-21T07:42:43;7.68;;;2.28;;
70731;SDS011;58316;48.164;11.538;2022-08-21T07:45:09;7.75;;;2.40;;
70731;SDS011;58316;48.164;11.538;2022-08-21T07:47:36;6.80;;;2.80;;
70731;SDS011;58316;48.164;11.538;2022-08-21T07:50:03;10.45;;;2.50;;
70731;SDS011;58316;48.164;11.538;2022-08-21T07:52:29;8.20;;;2.40;;
70731;SDS011;58316;48.164;11.538;2022-08-21T07:54:55;8.13;;;2.60;;
70731;SDS011;58316;48.164;11.538;2022-08-21T07:57:21;8.55;;;2.70;;
70731;SDS011;58316;48.164;11.538;2022-08-21T07:59:47;8.48;;;2.72;;
70731;SDS011;58316;48.164;11.538;2022-08-21T08:02:21;8.17;;;3.00;;
70731;SDS011;58316;48.164;11.538;2022-08-21T08:04:47;7.60;;;2.93;;
70731;SDS011;58316;48.164;11.538;2022-08-21T08:07:14;6.55;;;2.80;;
70731;SDS011;58316;48.164;11.538;2022-08-21T08:09:40;7.43;;;2.75;;
70731;SDS011;58316;48.164;11.538;2022-08-21T08:12:06;6.90;;;2.50;;
70731;SDS011;58316;48.164;11.538;2022-08-21T08:14:32;7.85;;;2.60;;
70731;SDS011;58316;48.164;11.538;2022-08-21T08:16:58;7.30;;;3.10;;
70731;SDS011;58316;48.164;11.538;2022-08-21T08:19:24;7.00;;;2.90;;
70731;SDS011;58316;48.164;11.538;2022-08-21T08:21:50;6.10;;;2.90;;
70731;SDS011;58316;48.164;11.538;2022-08-21T08:24:16;6.63;;;2.95;;
70731;SDS011;58316;48.164;11.538;2022-08-21T08:26:42;8.27;;;3.27;;
70731;SDS011;58316;48.164;11.538;2022-08-21T08:29:08;7.70;;;3.00;;
70731;SDS011;58316;48.164;11.538;2022-08-21T08:31:34;9.65;;;3.28;;
70731;SDS011;58316;48.164;11.538;2022-08-21T08:34:00;7.72;;;3.30;;
70731;SDS011;58316;48.164;11.538;2022-08-21T08:36:34;7.30;;;3.20;;
70731;SDS011;58316;48.164;11.538;2022-08-21T08:39:00;8.32;;;3.20;;
70731;SDS011;58316;48.164;11.538;2022-08-21T08:41:26;7.27;;;2.80;;
70731;SDS011;58316;48.164;11.538;2022-08-21T08:43:53;7.85;;;3.45;;
70731;SDS011;58316;48.164;11.538;2022-08-21T08:46:23;8.60;;;3.00;;
70731;SDS011;58316;48.164;11.538;2022-08-21T08:49:00;7.25;;;3.20;;
70731;SDS011;58316;48.164;11.538;2022-08-21T08:51:47;7.85;;;3.28;;
70731;SDS011;58316;48.164;11.538;2022-08-21T08:54:21;8.17;;;3.33;;
70731;SDS011;58316;48.164;11.538;2022-08-21T08:56:50;8.00;;;3.35;;
70731;SDS011;58316;48.164;11.538;2022-08-21T08:59:20;7.05;;;2.83;;
70731;SDS011;58316;48.164;11.538;2022-08-21T09:01:48;9.00;;;3.20;;
70731;SDS011;58316;48.164;11.538;2022-08-21T09:04:14;7.05;;;2.95;;
70731;SDS011;58316;48.164;11.538;2022-08-21T09:06:58;8.00;;;3.23;;
70731;SDS011;58316;48.164;11.538;2022-08-21T09:12:13;8.43;;;3.15;;
70731;SDS011;58316;48.164;11.538;2022-08-21T09:22:43;8.00;;;3.45;;
70731;SDS011;58316;48.164;11.538;2022-08-21T09:25:21;7.18;;;3.33;;
70731;SDS011;58316;48.164;11.538;2022-08-21T09:27:48;7.38;;;3.00;;
70731;SDS011;58316;48.164;11.538;2022-08-21T09:30:15;7.47;;;3.00;;
70731;SDS011;58316;48.164;11.538;2022-08-21T09:32:42;7.13;;;3.03;;
70731;SDS011;58316;48.164;11.538;2022-08-21T09:35:11;7.82;;;3.30;;
70731;SDS011;58316;48.164;11.538;2022-08-21T09:37:52;6.55;;;2.78;;
70731;SDS011;58316;48.164;11.538;2022-08-21T09:40:40;7.22;;;3.50;;
70731;SDS011;58316;48.164;11.538;2022-08-21T09:43:06;8.38;;;4.20;;
70731;SDS011;58316;48.164;11.538;2022-08-21T09:45:33;7.47;;;3.67;;
70731;SDS011;58316;48.164;11.538;2022-08-21T09:48:17;7.10;;;3.40;;
70731;SDS011;58316;48.164;11.538;2022-08-21T09:50:44;7.22;;;2.90;;
70731;SDS011;58316;48.164;11.538;2022-08-21T09:53:16;7.28;;;3.08;;
70731;SDS011;58316;48.164;11.538;2022-08-21T09:55:48;6.90;;;2.85;;
70731;SDS011;58316;48.164;11.538;2022-08-21T09:58:34;7.83;;;3.10;;
70731;SDS011;58316;48.164;11.538;2022-08-21T10:01:01;6.95;;;3.10;;
70731;SDS011;58316;48.164;11.538;2022-08-21T10:03:27;8.57;;;3.53;;
70731;SDS011;58316;48.164;11.538;2022-08-21T10:05:55;7.22;;;3.67;;
70731;SDS011;58316;48.164;11.538;2022-08-21T10:08:23;7.95;;;3.15;;
70731;SDS011;58316;48.164;11.538;2022-08-21T10:10:50;7.80;;;2.27;;
70731;SDS011;58316;48.164;11.538;2022-08-21T10:21:01;8.50;;;3.33;;
70731;SDS011;58316;48.164;11.538;2022-08-21T10:26:20;6.43;;;2.53;;
70731;SDS011;58316;48.164;11.538;2022-08-21T10:36:47;8.10;;;3.83;;
70731;SDS011;58316;48.164;11.538;2022-08-21T10:39:20;7.80;;;3.40;;
70731;SDS011;58316;48.164;11.538;2022-08-21T10:46:50;6.00;;;2.90;;
70731;SDS011;58316;48.164;11.538;2022-08-21T10:49:44;6.30;;;2.73;;
70731;SDS011;58316;48.164;11.538;2022-08-21T10:57:29;8.02;;;3.42;;
70731;SDS011;58316;48.164;11.538;2022-08-21T10:59:57;8.75;;;3.15;;
70731;SDS011;58316;48.164;11.538;2022-08-21T11:02:26;6.57;;;3.10;;
70731;SDS011;58316;48.164;11.538;2022-08-21T11:10:13;9.18;;;3.30;;
70731;SDS011;58316;48.164;11.538;2022-08-21T11:12:43;7.93;;;3.72;;
70731;SDS011;58316;48.164;11.538;2022-08-21T11:15:28;7.10;;;3.40;;
70731;SDS011;58316;48.164;11.538;2022-08-21T11:20:42;6.78;;;3.15;;
70731;SDS011;58316;48.164;11.538;2022-08-21T11:23:55;7.95;;;4.57;;
70731;SDS011;58316;48.164;11.538;2022-08-21T11:25:58;8.43;;;3.10;;
70731;SDS011;58316;48.164;11.538;2022-08-21T11:31:23;8.13;;;3.50;;
70731;SDS011;58316;48.164;11.538;2022-08-21T11:34:05;6.50;;;2.65;;
70731;SDS011;58316;48.164;11.538;2022-08-21T11:41:30;7.17;;;2.83;;
70731;SDS011;58316;48.164;11.538;2022-08-21T11:44:02;8.30;;;3.03;;
70731;SDS011;58316;48.164;11.538;2022-08-21T11:54:40;6.60;;;2.73;;
70731;SDS011;58316;48.164;11.538;2022-08-21T11:57:14;8.43;;;2.70;;
70731;SDS011;58316;48.164;11.538;2022-08-21T11:59:43;7.72;;;2.88;;
70731;SDS011;58316;48.164;11.538;2022-08-21T12:02:14;6.35;;;2.72;;
70731;SDS011;58316;48.164;11.538;2022-08-21T12:04:48;6.43;;;2.17;;
70731;SDS011;58316;48.164;11.538;2022-08-21T12:07:16;5.90;;;2.30;;
70731;SDS011;58316;48.164;11.538;2022-08-21T12:09:53;7.35;;;2.22;;
70731;SDS011;58316;48.164;11.538;2022-08-21T12:14:49;6.78;;;1.83;;
70731;SDS011;58316;48.164;11.538;2022-08-21T12:17:19;8.77;;;2.30;;
70731;SDS011;58316;48.164;11.538;2022-08-21T12:19:56;6.63;;;2.40;;
70731;SDS011;58316;48.164;11.538;2022-08-21T12:22:22;8.55;;;2.42;;
70731;SDS011;58316;48.164;11.538;2022-08-21T12:25:08;5.85;;;2.40;;
70731;SDS011;58316;48.164;11.538;2022-08-21T12:27:49;7.80;;;2.70;;
70731;SDS011;58316;48.164;11.538;2022-08-21T12:30:21;6.75;;;2.47;;
70731;SDS011;58316;48.164;11.538;2022-08-21T12:32:54;6.03;;;2.40;;
70731;SDS011;58316;48.164;11.538;2022-08-21T12:35:25;6.40;;;1.95;;
70731;SDS011;58316;48.164;11.538;2022-08-21T12:37:56;6.40;;;2.17;;
70731;SDS011;58316;48.164;11.538;2022-08-21T12:40:23;8.20;;;2.30;;
70731;SDS011;58316;48.164;11.538;2022-08-21T12:42:54;6.53;;;2.35;;
70731;SDS011;58316;48.164;11.538;2022-08-21T12:45:31;6.97;;;2.50;;
70731;SDS011;58316;48.164;11.538;2022-08-21T12:48:04;5.88;;;2.00;;
70731;SDS011;58316;48.164;11.538;2022-08-21T12:53:09;9.15;;;3.20;;
70731;SDS011;58316;48.164;11.538;2022-08-21T12:55:40;7.50;;;2.70;;
70731;SDS011;58316;48.164;11.538;2022-08-21T12:58:06;6.53;;;3.03;;
70731;SDS011;58316;48.164;11.538;2022-08-21T13:00:44;8.43;;;2.72;;
70731;SDS011;58316;48.164;11.538;2022-08-21T13:03:13;8.60;;;2.72;;
70731;SDS011;58316;48.164;11.538;2022-08-21T13:05:40;6.72;;;2.35;;
70731;SDS011;58316;48.164;11.538;2022-08-21T13:08:06;8.23;;;2.42;;
70731;SDS011;58316;48.164;11.538;2022-08-21T13:10:33;7.50;;;2.23;;
70731;SDS011;58316;48.164;11.538;2022-08-21T13:13:00;6.30;;;2.55;;
70731;SDS011;58316;48.164;11.538;2022-08-21T13:15:29;8.20;;;2.35;;
70731;SDS011;58316;48.164;11.538;2022-08-21T13:17:55;5.75;;;2.65;;
70731;SDS011;58316;48.164;11.538;2022-08-21T13:20:31;5.85;;;2.42;;
70731;SDS011;58316;48.164;11.538;2022-08-21T13:22:59;6.30;;;2.40;;
70731;SDS011;58316;48.164;11.538;2022-08-21T13:25:27;7.93;;;2.83;;
70731;SDS011;58316;48.164;11.538;2022-08-21T13:27:58;6.72;;;2.15;;
70731;SDS011;58316;48.164;11.538;2022-08-21T13:30:25;7.95;;;3.17;;
70731;SDS011;58316;48.164;11.538;2022-08-21T13:32:52;8.30;;;3.05;;
70731;SDS011;58316;48.164;11.538;2022-08-21T13:35:20;7.77;;;3.90;;
70731;SDS011;58316;48.164;11.538;2022-08-21T13:37:47;6.18;;;2.50;;
70731;SDS011;58316;48.164;11.538;2022-08-21T13:40:14;6.43;;;2.50;;
70731;SDS011;58316;48.164;11.538;2022-08-21T13:42:42;7.90;;;2.53;;
70731;SDS011;58316;48.164;11.538;2022-08-21T13:45:21;5.70;;;2.22;;
70731;SDS011;58316;48.164;11.538;2022-08-21T13:47:48;9.90;;;2.57;;
70731;SDS011;58316;48.164;11.538;2022-08-21T13:50:15;6.68;;;2.08;;
70731;SDS011;58316;48.164;11.538;2022-08-21T13:52:53;7.57;;;2.40;;
70731;SDS011;58316;48.164;11.538;2022-08-21T13:55:19;7.18;;;2.33;;
70731;SDS011;58316;48.164;11.538;2022-08-21T13:57:45;7.72;;;2.00;;
70731;SDS011;58316;48.164;11.538;2022-08-21T14:02:39;7.00;;;2.58;;
70731;SDS011;58316;48.164;11.538;2022-08-21T14:05:06;7.45;;;2.05;;
70731;SDS011;58316;48.164;11.538;2022-08-21T14:07:33;6.68;;;2.15;;
70731;SDS011;58316;48.164;11.538;2022-08-21T14:10:04;6.22;;;2.38;;
70731;SDS011;58316;48.164;11.538;2022-08-21T14:12:40;5.50;;;1.87;;
70731;SDS011;58316;48.164;11.538;2022-08-21T14:15:07;5.38;;;1.98;;
70731;SDS011;58316;48.164;11.538;2022-08-21T14:17:36;7.65;;;1.95;;
70731;SDS011;58316;48.164;11.538;2022-08-21T14:20:06;6.47;;;1.80;;
70731;SDS011;58316;48.164;11.538;2022-08-21T14:22:45;8.27;;;2.20;;
70731;SDS011;58316;48.164;11.538;2022-08-21T14:27:48;6.10;;;2.10;;
70731;SDS011;58316;48.164;11.538;2022-08-21T14:30:18;6.22;;;2.47;;
70731;SDS011;58316;48.164;11.538;2022-08-21T14:32:44;6.75;;;2.50;;
70731;SDS011;58316;48.164;11.538;2022-08-21T14:35:10;6.15;;;2.13;;
70731;SDS011;58316;48.164;11.538;2022-08-21T14:37:37;6.47;;;2.40;;
70731;SDS011;58316;48.164;11.538;2022-08-21T14:40:07;6.90;;;2.05;;
70731;SDS011;58316;48.164;11.538;2022-08-21T14:42:33;6.32;;;2.20;;
70731;SDS011;58316;48.164;11.538;2022-08-21T14:45:00;5.63;;;2.15;;
70731;SDS011;58316;48.164;11.538;2022-08-21T14:47:27;5.78;;;2.33;;
70731;SDS011;58316;48.164;11.538;2022-08-21T14:49:53;6.47;;;2.27;;
70731;SDS011;58316;48.164;11.538;2022-08-21T14:52:19;8.25;;;2.80;;
70731;SDS011;58316;48.164;11.538;2022-08-21T14:54:47;7.57;;;2.28;;
70731;SDS011;58316;48.164;11.538;2022-08-21T14:57:13;8.25;;;2.60;;
70731;SDS011;58316;48.164;11.538;2022-08-21T14:59:39;6.68;;;2.63;;
70731;SDS011;58316;48.164;11.538;2022-08-21T15:02:07;6.90;;;2.50;;
70731;SDS011;58316;48.164;11.538;2022-08-21T15:04:33;6.32;;;2.55;;
70731;SDS011;58316;48.164;11.538;2022-08-21T15:07:00;7.00;;;2.67;;
70731;SDS011;58316;48.164;11.538;2022-08-21T15:09:26;6.72;;;2.60;;
70731;SDS011;58316;48.164;11.538;2022-08-21T15:11:53;6.50;;;2.70;;
70731;SDS011;58316;48.164;11.538;2022-08-21T15:14:26;7.60;;;2.47;;
70731;SDS011;58316;48.164;11.538;2022-08-21T15:16:52;7.15;;;2.83;;
70731;SDS011;58316;48.164;11.538;2022-08-21T15:19:18;6.47;;;2.25;;
70731;SDS011;58316;48.164;11.538;2022-08-21T15:21:49;7.30;;;2.17;;
70731;SDS011;58316;48.164;11.538;2022-08-21T15:24:16;6.60;;;2.17;;
70731;SDS011;58316;48.164;11.538;2022-08-21T15:26:42;7.40;;;2.37;;
70731;SDS011;58316;48.164;11.538;2022-08-21T15:29:08;8.02;;;2.40;;
70731;SDS011;58316;48.164;11.538;2022-08-21T15:31:34;6.50;;;2.00;;
70731;SDS011;58316;48.164;11.538;2022-08-21T15:34:01;6.05;;;2.20;;
70731;SDS011;58316;48.164;11.538;2022-08-21T15:36:27;6.50;;;2.25;;
70731;SDS011;58316;48.164;11.538;2022-08-21T15:38:53;6.77;;;2.30;;
70731;SDS011;58316;48.164;11.538;2022-08-21T15:41:22;7.93;;;2.78;;
70731;SDS011;58316;48.164;11.538;2022-08-21T15:43:49;6.65;;;2.70;;
70731;SDS011;58316;48.164;11.538;2022-08-21T15:46:16;8.15;;;2.85;;
70731;SDS011;58316;48.164;11.538;2022-08-21T15:48:43;7.03;;;2.40;;
70731;SDS011;58316;48.164;11.538;2022-08-21T15:51:10;8.73;;;2.20;;